Airfield :
LOGIN :

Register | Disclaimer

   EN    FR    IT 

 










Legend :    VFR   Marginal VFR   IFR   Intensive IFR   Very Intensive IFR
Visi :
Ceiling :
>= 8 km
>= 3000ft
5 to 8 km
1000 to 3000 ft
1500m to 5 km
500 to 1000 ft
800 to 1500m
200 to 500 ft
< 800m
< 200 ft
Symbols :   Thunderstorms  Fog  Heavy snow  Heavy precipitations  Wind > 20 kt
SIGMETs :     Misc.  Thunderstorms  Icing  Turbulence  Mountain Waves  Volcanic Ashes






- Airport Elevation : -11 ft
- IATA code : AMS


EHAM - Amsterdam Schiphol

CURRENT METAR :
  • 210925Z 15015KT 120V190 8000 -RA SCT007 BKN011 13/12 Q0999 BECMG BKN020

EXPIRED METARs :
  • 210855Z 15015KT 120V180 8000 -RA FEW006 SCT012 BKN018 13/12 Q1000 RERA BECMG BKN020
  • 210825Z 15013KT 120V180 6000 RA SCT006 SCT010 BKN015 13/12 Q1000 BECMG 8000 BKN020
  • 210755Z 15013KT 120V180 6000 RA SCT006 BKN010 13/12 Q1000 TEMPO BKN007
  • 210725Z 15011KT 8000 -RADZ SCT005 BKN007 13/12 Q1001 BECMG BKN010
  • 210655Z 15011KT 7000 -DZRA FEW004 BKN007 BKN015 13/12 Q1001 NOSIG

TAF TAF EHAM
Valid from the 21 at 06:00 until the 22 at 12:00 UTC


210445Z 2106/2212 15012KT 9999 -RA SCT007 BKN010
BECMG 2106/2109 BKN040
TEMPO 2106/2111 7000
PROB30
TEMPO 2106/2111 4000 RA
BECMG 2109/2112 18017G27KT NSW
BECMG 2112/2115 22026G38KT
PROB30
TEMPO 2115/2119 23029G43KT 7000 -SHRA SCT015TCU BKN018
BECMG 2119/2122 22015KT
PROB30
TEMPO 2119/2206 BKN015



MET'MAP, your aeronautical weather chart ! - Copyright ORBIFLY December 2007 - Disclaimer

ORBIFLY MET'MAP TEAM :

Programming & Development : Alexandra Zaïnal
Concept & original design : Baudouin d'Aumeries
Assistance for programming : Marc-Olivier Méhu
Technical & hardware support : Manuel Goepfert

Contact : metmap@orbifly.com




SOURCES & CREDITS :

   NOAA